Time;durP1;ratioP1;P1;durP2;ratioP2;P2;SDS_P1;SDS_P2;PMS_P1;PMS_P2;Temp;Humidity;BMP_temperature;BMP_pressure;BME280_temperature;BME280_humidity;BME280_pressure;Samples;Min_cycle;Max_cycle;Signal;HPM_P1;HPM_P2
2021/12/27 00:01:52;;;;;;;25.90;14.35;;;0.10;99.90;;;;;;4986144;28;20069;-78
2021/12/27 00:04:18;;;;;;;25.40;14.27;;;0.10;99.90;;;;;;4955056;28;225061;-80
2021/12/27 00:06:44;;;;;;;27.00;15.02;;;0.00;99.90;;;;;;4962093;28;20812;-80
2021/12/27 00:09:11;;;;;;;28.38;15.23;;;0.00;99.90;;;;;;4971573;28;20802;-79
2021/12/27 00:11:37;;;;;;;25.88;15.32;;;0.00;99.90;;;;;;4972195;28;252425;-81
2021/12/27 00:14:03;;;;;;;26.02;14.43;;;0.00;99.90;;;;;;4980431;28;20062;-80
2021/12/27 00:16:29;;;;;;;25.90;15.15;;;-0.10;99.90;;;;;;4959429;28;20050;-79
2021/12/27 00:18:55;;;;;;;26.60;14.90;;;-0.10;99.90;;;;;;4977872;28;20054;-78
2021/12/27 00:21:21;;;;;;;28.58;16.05;;;-0.10;99.90;;;;;;4967470;28;116817;-78
2021/12/27 00:23:47;;;;;;;26.95;15.20;;;-0.20;99.90;;;;;;4989885;28;20061;-80
2021/12/27 00:26:14;;;;;;;27.35;15.38;;;-0.20;99.90;;;;;;4963040;28;119229;-79
2021/12/27 00:28:40;;;;;;;25.63;14.90;;;-0.20;99.90;;;;;;4995763;28;20053;-79
2021/12/27 00:31:06;;;;;;;26.83;15.07;;;-0.20;99.90;;;;;;4976537;28;231639;-79
2021/12/27 00:33:32;;;;;;;24.98;15.10;;;-0.20;99.90;;;;;;5000188;28;20057;-79
2021/12/27 00:35:59;;;;;;;27.30;15.35;;;-0.10;99.90;;;;;;4981570;28;219759;-79
2021/12/27 00:38:25;;;;;;;26.20;16.00;;;-0.10;99.90;;;;;;4997547;28;20046;-81
2021/12/27 00:40:51;;;;;;;26.92;15.85;;;-0.20;99.90;;;;;;4985045;28;80891;-79
2021/12/27 00:43:18;;;;;;;27.75;15.40;;;-0.20;99.90;;;;;;4996681;28;20069;-80
2021/12/27 00:45:45;;;;;;;27.92;15.93;;;-0.10;99.90;;;;;;5001562;28;246670;-79
2021/12/27 00:48:11;;;;;;;27.45;15.65;;;-0.20;99.90;;;;;;4990760;28;20057;-79
2021/12/27 00:50:37;;;;;;;29.90;17.15;;;-0.10;99.90;;;;;;4987325;28;86538;-79
2021/12/27 00:53:03;;;;;;;28.50;15.65;;;-0.20;99.90;;;;;;4999479;28;20057;-80
2021/12/27 00:55:29;;;;;;;29.10;16.75;;;-0.10;99.90;;;;;;4988523;28;253873;-80
2021/12/27 00:57:55;;;;;;;28.73;16.13;;;-0.10;99.90;;;;;;4999652;28;20042;-79
2021/12/27 01:00:25;;;;;;;28.98;16.15;;;-0.10;99.90;;;;;;4979200;28;188184;-81
2021/12/27 01:02:53;;;;;;;29.88;17.25;;;-0.10;99.90;;;;;;4998491;28;20058;-81
2021/12/27 01:05:20;;;;;;;28.88;16.42;;;-0.10;99.90;;;;;;4977018;28;256563;-79
2021/12/27 01:07:46;;;;;;;27.77;16.25;;;-0.10;99.90;;;;;;5014196;28;20573;-81
2021/12/27 01:10:33;;;;;;;28.05;15.98;;;-0.10;99.90;;;;;;4972763;28;205418;-79
2021/12/27 01:18:12;;;;;;;29.73;16.08;;;-0.10;99.90;;;;;;4985716;28;20069;-79
2021/12/27 01:20:39;;;;;;;28.52;16.08;;;-0.10;99.90;;;;;;4986338;28;273690;-78
2021/12/27 01:23:05;;;;;;;29.67;16.52;;;-0.10;99.90;;;;;;4998530;28;20050;-80
2021/12/27 01:25:32;;;;;;;28.52;16.30;;;-0.10;99.90;;;;;;4976835;28;176104;-79
2021/12/27 01:27:58;;;;;;;29.10;16.65;;;-0.10;99.90;;;;;;4993017;28;20065;-80
2021/12/27 01:30:24;;;;;;;27.63;16.67;;;-0.10;99.90;;;;;;4992246;28;187872;-80
2021/12/27 01:32:59;;;;;;;28.15;16.00;;;-0.10;99.90;;;;;;5003759;28;20050;-80
2021/12/27 01:35:26;;;;;;;28.27;16.88;;;-0.10;99.90;;;;;;4979947;28;147615;-80
2021/12/27 01:37:53;;;;;;;27.98;16.67;;;-0.10;99.90;;;;;;4989622;28;20050;-79
2021/12/27 01:40:26;;;;;;;29.88;17.35;;;-0.10;99.90;;;;;;4974207;28;253367;-80
2021/12/27 01:43:16;;;;;;;28.45;17.45;;;-0.10;99.90;;;;;;4978684;28;20050;-80
2021/12/27 01:45:47;;;;;;;26.52;16.30;;;0.00;99.90;;;;;;4984396;28;251617;-81
2021/12/27 01:48:17;;;;;;;;;;;0.00;99.90;;;;;;5001717;28;20403;-79
2021/12/27 01:50:44;;;;;;;27.83;16.48;;;-0.10;99.90;;;;;;4987290;28;267661;-79
2021/12/27 01:53:12;;;;;;;27.95;16.95;;;-0.10;99.90;;;;;;4988408;28;20050;-80
2021/12/27 01:55:39;;;;;;;27.63;17.50;;;0.00;99.90;;;;;;4989387;28;274263;-78
2021/12/27 01:58:05;;;;;;;28.00;16.80;;;0.00;99.90;;;;;;4983910;28;20420;-79
2021/12/27 02:00:33;;;;;;;29.00;16.85;;;0.00;99.90;;;;;;4975489;28;80746;-80
2021/12/27 02:03:00;;;;;;;28.10;17.30;;;0.00;99.90;;;;;;4988522;28;20054;-80
2021/12/27 02:05:26;;;;;;;31.23;17.98;;;0.00;99.90;;;;;;4970940;28;274978;-80
2021/12/27 02:07:52;;;;;;;32.47;17.77;;;0.00;99.90;;;;;;5001643;28;20054;-80
2021/12/27 02:10:18;;;;;;;30.52;17.13;;;0.00;99.90;;;;;;4980718;28;145938;-79
2021/12/27 02:12:44;;;;;;;26.27;16.65;;;0.00;99.90;;;;;;4991935;28;20426;-79
2021/12/27 02:15:12;;;;;;;29.23;17.60;;;0.00;99.90;;;;;;4975415;28;230415;-79
2021/12/27 02:17:40;;;;;;;28.00;15.93;;;0.00;99.90;;;;;;4996873;28;20061;-78
2021/12/27 02:20:14;;;;;;;27.85;16.75;;;0.00;99.90;;;;;;4972362;28;223863;-79
2021/12/27 02:22:41;;;;;;;28.60;16.15;;;0.00;99.90;;;;;;4986351;28;20054;-79
2021/12/27 02:25:08;;;;;;;28.02;17.10;;;0.00;99.90;;;;;;4976624;28;195062;-79
2021/12/27 02:27:34;;;;;;;28.55;16.38;;;0.10;99.90;;;;;;4989960;28;20069;-79
2021/12/27 02:30:04;;;;;;;29.17;16.65;;;0.10;99.90;;;;;;4977966;28;34241;-79
2021/12/27 02:32:30;;;;;;;28.60;17.33;;;0.10;99.90;;;;;;4995069;28;20054;-80
2021/12/27 02:34:56;;;;;;;28.90;16.95;;;0.10;99.90;;;;;;4990184;28;20052;-80
2021/12/27 02:37:23;;;;;;;31.48;17.77;;;0.00;99.90;;;;;;4994765;28;20130;-79
2021/12/27 02:39:49;;;;;;;28.85;17.27;;;0.10;99.90;;;;;;4978806;28;119297;-79
2021/12/27 02:42:19;;;;;;;28.27;17.58;;;0.10;99.90;;;;;;4992459;28;20408;-79
2021/12/27 02:44:46;;;;;;;31.67;18.73;;;0.00;99.90;;;;;;4966124;28;143105;-79
2021/12/27 02:47:14;;;;;;;29.08;17.58;;;0.10;99.90;;;;;;4970099;28;20643;-80
2021/12/27 02:49:41;;;;;;;30.35;17.98;;;0.10;99.90;;;;;;4953324;28;266341;-78
2021/12/27 02:52:07;;;;;;;28.83;17.20;;;0.10;99.90;;;;;;4971547;28;20055;-79
2021/12/27 02:54:33;;;;;;;31.95;17.35;;;0.10;99.90;;;;;;4958874;28;265232;-78
2021/12/27 02:56:59;;;;;;;34.25;18.30;;;0.10;99.90;;;;;;4975822;28;20072;-80
2021/12/27 02:59:25;;;;;;;29.38;17.35;;;0.10;99.90;;;;;;4956229;28;257551;-79
2021/12/27 03:01:52;;;;;;;30.70;17.67;;;0.10;99.90;;;;;;4972325;28;20058;-78
2021/12/27 03:04:18;;;;;;;30.77;18.65;;;0.10;99.90;;;;;;4951001;28;266900;-77
2021/12/27 03:06:44;;;;;;;31.65;18.83;;;0.10;99.90;;;;;;4946668;28;135998;-79
2021/12/27 03:09:10;;;;;;;28.40;17.05;;;0.10;99.90;;;;;;4996578;28;20038;-78
2021/12/27 03:11:36;;;;;;;31.77;18.25;;;0.10;99.90;;;;;;4979861;28;76618;-79
2021/12/27 03:14:02;;;;;;;31.55;17.55;;;0.10;99.90;;;;;;4986697;28;20047;-78
2021/12/27 03:16:31;;;;;;;29.88;18.13;;;0.10;99.90;;;;;;4991239;28;275303;-79
2021/12/27 03:18:57;;;;;;;30.85;17.73;;;0.10;99.90;;;;;;4990442;28;20049;-78
2021/12/27 03:21:23;;;;;;;30.20;17.60;;;0.10;99.90;;;;;;4976910;28;246774;-79
2021/12/27 03:23:50;;;;;;;29.75;18.35;;;0.10;99.90;;;;;;4989787;28;20049;-78
2021/12/27 03:26:16;;;;;;;30.88;18.45;;;0.10;99.90;;;;;;4987534;28;270556;-78
2021/12/27 03:28:43;;;;;;;31.27;18.42;;;0.10;99.90;;;;;;4988642;28;20064;-79
2021/12/27 03:31:10;;;;;;;29.58;17.88;;;0.10;99.90;;;;;;4977341;28;198222;-78
2021/12/27 03:33:36;;;;;;;30.75;18.42;;;0.10;99.90;;;;;;4988806;28;20043;-78
2021/12/27 03:36:05;;;;;;;30.10;18.25;;;0.10;99.90;;;;;;4984437;28;253404;-78
2021/12/27 03:38:36;;;;;;;31.25;19.35;;;0.20;99.90;;;;;;4991497;28;20058;-79
2021/12/27 03:41:04;;;;;;;30.83;17.77;;;0.20;99.90;;;;;;4981488;28;259132;-78
2021/12/27 03:43:31;;;;;;;29.20;18.92;;;0.20;99.90;;;;;;4981593;28;20058;-78
2021/12/27 03:45:57;;;;;;;28.52;17.42;;;0.20;99.90;;;;;;4978494;28;25572;-78
2021/12/27 03:48:23;;;;;;;33.35;19.08;;;0.20;99.90;;;;;;4987136;28;20057;-79
2021/12/27 03:50:49;;;;;;;30.85;19.10;;;0.20;99.90;;;;;;4978476;28;272672;-79
2021/12/27 03:53:15;;;;;;;30.20;18.52;;;0.20;99.90;;;;;;4991710;28;20505;-78
2021/12/27 03:55:41;;;;;;;30.08;17.77;;;0.20;99.90;;;;;;4972031;28;126045;-79
2021/12/27 03:58:10;;;;;;;31.63;19.20;;;0.20;99.90;;;;;;4989513;28;20049;-78
2021/12/27 04:03:12;;;;;;;30.58;18.67;;;0.20;99.90;;;;;;4992550;28;20518;-78
2021/12/27 04:05:38;;;;;;;31.73;19.38;;;0.30;99.90;;;;;;4963565;28;114820;-79
2021/12/27 04:08:09;;;;;;;32.65;18.80;;;0.30;99.90;;;;;;4975117;28;20046;-79
2021/12/27 04:10:40;;;;;;;31.45;18.58;;;0.30;99.90;;;;;;4977152;28;255606;-79
2021/12/27 04:13:08;;;;;;;29.33;18.35;;;0.30;99.90;;;;;;4992332;28;20046;-79
2021/12/27 04:15:35;;;;;;;30.80;18.58;;;0.20;99.90;;;;;;4997407;28;65191;-78
2021/12/27 04:18:02;;;;;;;31.00;19.33;;;0.30;99.90;;;;;;4988724;28;20053;-78
2021/12/27 04:20:29;;;;;;;32.97;18.83;;;0.30;99.90;;;;;;4973056;28;70170;-78
2021/12/27 04:22:55;;;;;;;34.45;20.30;;;0.30;99.90;;;;;;4979285;28;20062;-78
2021/12/27 04:25:22;;;;;;;32.20;20.08;;;0.30;99.90;;;;;;4961644;28;180375;-78
2021/12/27 04:27:49;;;;;;;33.65;20.13;;;0.30;99.90;;;;;;4996445;28;20046;-78
2021/12/27 04:30:17;;;;;;;32.97;19.98;;;0.30;99.90;;;;;;4979588;28;167636;-78
2021/12/27 04:32:44;;;;;;;34.80;20.58;;;0.30;99.90;;;;;;4985693;28;22150;-77
2021/12/27 04:35:11;;;;;;;34.60;20.70;;;0.30;99.90;;;;;;4990548;28;34503;-78
2021/12/27 04:37:37;;;;;;;33.20;19.95;;;0.30;99.90;;;;;;4988718;28;20058;-78
2021/12/27 04:40:07;;;;;;;33.60;19.95;;;0.30;99.90;;;;;;4985206;28;20445;-77
2021/12/27 04:42:34;;;;;;;31.52;19.08;;;0.30;99.90;;;;;;4984462;28;20062;-78
2021/12/27 04:45:01;;;;;;;32.63;20.25;;;0.30;99.90;;;;;;4975597;28;79361;-77
2021/12/27 04:47:27;;;;;;;32.35;19.33;;;0.30;99.90;;;;;;4996460;28;20061;-78
2021/12/27 04:49:54;;;;;;;34.28;19.77;;;0.30;99.90;;;;;;4980443;28;20050;-78
2021/12/27 04:52:20;;;;;;;32.47;19.55;;;0.30;99.90;;;;;;4989321;28;20041;-78
2021/12/27 04:54:46;;;;;;;32.58;19.50;;;0.30;99.90;;;;;;4973981;28;181541;-78
2021/12/27 04:57:12;;;;;;;34.25;19.70;;;0.30;99.90;;;;;;5004353;28;20065;-79
2021/12/27 04:59:38;;;;;;;32.95;19.60;;;0.30;99.90;;;;;;4970800;28;256300;-78
2021/12/27 05:02:05;;;;;;;32.97;20.05;;;0.30;99.90;;;;;;4978387;28;20058;-78
2021/12/27 05:04:31;;;;;;;32.30;20.30;;;0.40;99.90;;;;;;4960171;28;260632;-77
2021/12/27 05:06:57;;;;;;;35.25;20.75;;;0.40;99.90;;;;;;4957408;28;20606;-78
2021/12/27 05:09:24;;;;;;;33.42;20.05;;;0.40;99.90;;;;;;4969091;28;271353;-78
2021/12/27 05:11:50;;;;;;;34.67;20.50;;;0.40;99.90;;;;;;5001656;28;20065;-77
2021/12/27 05:14:16;;;;;;;32.90;20.40;;;0.40;99.90;;;;;;4979072;28;252162;-78
2021/12/27 05:16:42;;;;;;;36.83;20.48;;;0.40;99.90;;;;;;4983494;28;20589;-78
2021/12/27 05:19:08;;;;;;;34.40;20.23;;;0.40;99.90;;;;;;4985483;28;20507;-77
2021/12/27 05:21:35;;;;;;;34.70;21.85;;;0.30;99.90;;;;;;4954080;28;186380;-78
2021/12/27 05:24:01;;;;;;;35.25;21.55;;;0.40;99.90;;;;;;4987360;28;20084;-78
2021/12/27 05:26:27;;;;;;;39.75;22.90;;;0.30;99.90;;;;;;4971571;28;250506;-78
2021/12/27 05:28:53;;;;;;;36.25;22.05;;;0.30;99.90;;;;;;4998392;28;20062;-78
2021/12/27 05:31:19;;;;;;;38.55;22.45;;;0.30;99.90;;;;;;4983309;28;216699;-77
2021/12/27 05:33:45;;;;;;;38.92;22.08;;;0.30;99.90;;;;;;4977068;28;20479;-77
2021/12/27 05:36:12;;;;;;;37.60;22.58;;;0.30;99.90;;;;;;4978321;28;180339;-77
2021/12/27 05:38:39;;;;;;;45.10;23.25;;;0.30;99.90;;;;;;4995622;28;20065;-78
2021/12/27 05:41:06;;;;;;;43.95;23.85;;;0.30;99.90;;;;;;4989812;28;272704;-77
2021/12/27 05:43:32;;;;;;;38.85;22.02;;;0.30;99.90;;;;;;4986136;28;20061;-77
2021/12/27 05:45:59;;;;;;;40.58;23.55;;;0.30;99.90;;;;;;4983068;28;261151;-78
2021/12/27 05:48:25;;;;;;;42.00;23.88;;;0.30;99.90;;;;;;4988753;28;20050;-77
2021/12/27 05:50:51;;;;;;;44.03;23.33;;;0.30;99.90;;;;;;4973824;28;182920;-77
2021/12/27 05:53:17;;;;;;;41.10;23.08;;;0.30;99.90;;;;;;4994908;28;20075;-78
2021/12/27 05:55:44;;;;;;;40.65;21.77;;;0.40;99.90;;;;;;4982571;28;31481;-78
2021/12/27 05:58:10;;;;;;;44.45;23.88;;;0.30;99.90;;;;;;4971783;28;20406;-77
2021/12/27 06:00:38;;;;;;;46.53;24.08;;;0.40;99.90;;;;;;4971846;28;169296;-77
2021/12/27 06:03:04;;;;;;;45.97;24.33;;;0.40;99.90;;;;;;5001737;28;20062;-77
2021/12/27 06:05:31;;;;;;;41.30;23.20;;;0.40;99.90;;;;;;4956952;28;247417;-78
2021/12/27 06:07:57;;;;;;;43.08;23.15;;;0.40;99.90;;;;;;4983185;28;20054;-77
2021/12/27 06:10:24;;;;;;;43.75;24.13;;;0.40;99.90;;;;;;4981332;28;58860;-77
2021/12/27 06:12:50;;;;;;;43.85;23.95;;;0.40;99.90;;;;;;4994885;28;20046;-77
2021/12/27 06:15:16;;;;;;;44.15;23.65;;;0.40;99.90;;;;;;4976432;28;129329;-78
2021/12/27 06:17:42;;;;;;;46.88;24.55;;;0.40;99.90;;;;;;4986910;28;20054;-77
2021/12/27 06:20:12;;;;;;;43.75;23.83;;;0.40;99.90;;;;;;4969992;28;229522;-78
2021/12/27 06:22:41;;;;;;;46.78;24.40;;;0.40;99.90;;;;;;4989889;28;20054;-78
2021/12/27 06:25:08;;;;;;;42.65;23.80;;;0.40;99.90;;;;;;4975106;28;30089;-78
2021/12/27 06:27:34;;;;;;;47.05;24.42;;;0.50;99.90;;;;;;4988273;28;20069;-79
2021/12/27 06:30:02;;;;;;;46.85;23.80;;;0.50;99.90;;;;;;4979844;28;20059;-77
2021/12/27 06:32:28;;;;;;;49.30;24.13;;;0.50;99.90;;;;;;4987254;28;20547;-78
2021/12/27 06:34:54;;;;;;;43.60;24.35;;;0.50;99.90;;;;;;4973891;28;178307;-78
2021/12/27 06:37:21;;;;;;;47.88;23.77;;;0.50;99.90;;;;;;4987004;28;20057;-78
2021/12/27 06:39:47;;;;;;;49.42;24.88;;;0.50;99.90;;;;;;4971803;28;267860;-78
2021/12/27 06:42:13;;;;;;;47.25;24.23;;;0.50;99.90;;;;;;4989402;28;20050;-78
2021/12/27 06:44:39;;;;;;;52.13;23.98;;;0.60;99.90;;;;;;4977898;28;262735;-79
2021/12/27 06:47:06;;;;;;;53.50;24.83;;;0.50;99.90;;;;;;5001195;28;20543;-79
2021/12/27 06:49:32;;;;;;;52.47;25.85;;;0.60;99.90;;;;;;4969163;28;274052;-77
2021/12/27 06:51:59;;;;;;;49.75;25.27;;;0.60;99.90;;;;;;4971452;28;20057;-79
2021/12/27 06:54:25;;;;;;;45.90;24.55;;;0.60;99.90;;;;;;4967552;28;256606;-78
2021/12/27 06:56:51;;;;;;;51.33;25.77;;;0.60;99.90;;;;;;4985486;28;20527;-79
2021/12/27 06:59:17;;;;;;;51.42;25.15;;;0.60;99.90;;;;;;4982584;28;252680;-77
2021/12/27 07:01:43;;;;;;;51.72;25.33;;;0.60;99.90;;;;;;4996039;28;20434;-79
2021/12/27 07:04:11;;;;;;;53.47;25.48;;;0.60;99.90;;;;;;4998497;28;20037;-79
2021/12/27 07:06:37;;;;;;;51.15;24.95;;;0.60;99.90;;;;;;4967518;28;231057;-79
2021/12/27 07:09:04;;;;;;;48.10;25.45;;;0.60;99.90;;;;;;5003434;28;20059;-79
2021/12/27 07:11:30;;;;;;;51.92;25.73;;;0.60;99.90;;;;;;4956711;28;98183;-79
2021/12/27 07:13:57;;;;;;;56.97;26.70;;;0.60;99.90;;;;;;4967746;28;20050;-79
2021/12/27 07:16:25;;;;;;;53.65;25.77;;;0.60;99.90;;;;;;4951018;28;190104;-79
2021/12/27 07:18:52;;;;;;;54.28;26.15;;;0.60;99.90;;;;;;4954119;28;20085;-80
2021/12/27 07:21:18;;;;;;;50.92;24.73;;;0.60;99.90;;;;;;4961304;28;210442;-79
2021/12/27 07:23:44;;;;;;;52.30;26.55;;;0.70;99.90;;;;;;4965824;28;20058;-78
2021/12/27 07:26:11;;;;;;;52.25;26.65;;;0.70;99.90;;;;;;4958603;28;25625;-79
2021/12/27 07:28:37;;;;;;;50.50;25.73;;;0.70;99.90;;;;;;4965642;28;20073;-78
2021/12/27 07:31:04;;;;;;;55.33;27.08;;;0.70;99.90;;;;;;4961297;28;275163;-80
2021/12/27 07:33:30;;;;;;;53.90;27.20;;;0.70;99.90;;;;;;4973146;28;20054;-80
2021/12/27 07:35:56;;;;;;;52.30;26.60;;;0.70;99.90;;;;;;4958839;28;113759;-80
2021/12/27 07:38:22;;;;;;;52.70;25.55;;;0.60;99.90;;;;;;4969644;28;20726;-80
2021/12/27 07:40:48;;;;;;;58.13;27.52;;;0.70;99.90;;;;;;4964966;28;115808;-80
2021/12/27 07:43:14;;;;;;;54.13;27.13;;;0.70;99.90;;;;;;4976173;28;20078;-79
2021/12/27 07:45:41;;;;;;;58.38;26.35;;;0.70;99.90;;;;;;4960722;28;260288;-79
2021/12/27 07:48:07;;;;;;;54.20;26.10;;;0.70;99.90;;;;;;4966080;28;20055;-79
2021/12/27 07:50:37;;;;;;;53.92;26.15;;;0.70;99.90;;;;;;4955123;28;174653;-80
2021/12/27 07:53:04;;;;;;;59.97;27.92;;;0.70;99.90;;;;;;4974763;28;20093;-79
2021/12/27 07:55:31;;;;;;;55.78;26.40;;;0.70;99.90;;;;;;4967519;28;208130;-79
2021/12/27 07:57:58;;;;;;;60.83;27.10;;;0.70;99.90;;;;;;4961947;28;20062;-75
2021/12/27 08:00:25;;;;;;;55.08;27.27;;;0.70;99.90;;;;;;4935421;28;238954;-79
2021/12/27 08:02:52;;;;;;;52.95;26.67;;;0.70;99.90;;;;;;4966037;28;20559;-79
2021/12/27 08:05:19;;;;;;;63.10;27.83;;;0.70;99.90;;;;;;4942300;28;129463;-78
2021/12/27 08:07:45;;;;;;;61.03;27.92;;;0.70;99.90;;;;;;4964373;28;20511;-78
2021/12/27 08:10:13;;;;;;;58.65;26.75;;;0.70;99.90;;;;;;4933636;28;219827;-78
2021/12/27 08:12:39;;;;;;;67.55;28.52;;;0.70;99.90;;;;;;4973330;28;20055;-77
2021/12/27 08:15:08;;;;;;;64.82;27.42;;;0.80;99.90;;;;;;4978390;28;135141;-78
2021/12/27 08:17:34;;;;;;;65.30;29.85;;;0.80;99.90;;;;;;4963608;28;20050;-78
2021/12/27 08:20:00;;;;;;;62.42;27.75;;;0.80;99.90;;;;;;4956516;28;285508;-78
2021/12/27 08:22:26;;;;;;;61.10;27.55;;;0.80;99.90;;;;;;4971634;28;20062;-77
2021/12/27 08:24:55;;;;;;;58.85;27.60;;;0.80;99.90;;;;;;4956399;28;271679;-77
2021/12/27 08:27:24;;;;;;;70.72;28.73;;;0.80;99.90;;;;;;4980662;28;20495;-78
2021/12/27 08:29:50;;;;;;;71.03;28.08;;;0.80;99.90;;;;;;4961680;28;253917;-79
2021/12/27 08:32:16;;;;;;;69.63;27.67;;;0.90;99.90;;;;;;4977911;28;20476;-78
2021/12/27 08:34:43;;;;;;;67.60;28.45;;;0.90;99.90;;;;;;4968864;28;20053;-79
2021/12/27 08:37:09;;;;;;;66.25;27.83;;;0.90;99.90;;;;;;4973682;28;20054;-80
2021/12/27 08:39:35;;;;;;;70.53;30.00;;;0.90;99.90;;;;;;4956955;28;267070;-80
2021/12/27 08:42:03;;;;;;;70.03;30.15;;;0.90;99.90;;;;;;4984772;28;20399;-79
2021/12/27 08:44:29;;;;;;;68.00;28.92;;;0.90;99.90;;;;;;4953378;28;255883;-81
2021/12/27 08:46:56;;;;;;;70.55;28.95;;;1.00;99.90;;;;;;4973916;28;20073;-77
2021/12/27 08:49:22;;;;;;;76.90;28.85;;;1.00;99.90;;;;;;4951288;28;272549;-79
2021/12/27 08:51:48;;;;;;;76.93;30.20;;;1.00;99.90;;;;;;4968800;28;20053;-78
2021/12/27 08:54:14;;;;;;;69.35;29.00;;;1.00;99.90;;;;;;4972004;28;20063;-78
2021/12/27 08:56:41;;;;;;;79.95;27.75;;;1.00;99.90;;;;;;4953223;28;133355;-79
2021/12/27 08:59:07;;;;;;;74.15;28.33;;;1.00;99.90;;;;;;4971454;28;20057;-79
2021/12/27 09:01:33;;;;;;;73.78;29.20;;;1.00;99.90;;;;;;4970700;28;268892;-79
2021/12/27 09:03:59;;;;;;;77.05;28.50;;;1.10;99.90;;;;;;4974667;28;21282;-80
2021/12/27 09:06:25;;;;;;;82.45;29.80;;;1.10;99.90;;;;;;4958619;28;260625;-78
2021/12/27 09:08:51;;;;;;;77.00;29.38;;;1.10;99.90;;;;;;4985474;28;20061;-79
2021/12/27 09:11:17;;;;;;;81.30;29.13;;;1.10;99.90;;;;;;4969485;28;261763;-79
2021/12/27 09:13:44;;;;;;;78.13;28.15;;;1.10;99.90;;;;;;4973067;28;20051;-79
2021/12/27 09:16:12;;;;;;;74.43;28.95;;;1.10;99.90;;;;;;4966170;28;256232;-78
2021/12/27 09:18:39;;;;;;;70.90;28.13;;;1.20;99.90;;;;;;4972897;28;20051;-81
2021/12/27 09:21:05;;;;;;;65.22;26.83;;;1.20;99.90;;;;;;4958931;28;151364;-79
2021/12/27 09:23:31;;;;;;;73.35;28.73;;;1.20;99.90;;;;;;4973039;28;20062;-78
2021/12/27 09:25:57;;;;;;;75.40;27.70;;;1.20;99.90;;;;;;4970136;28;280372;-77
2021/12/27 09:28:24;;;;;;;80.38;27.85;;;1.20;99.90;;;;;;4974467;28;20073;-77
2021/12/27 09:30:50;;;;;;;77.82;27.85;;;1.30;99.90;;;;;;4940018;28;171641;-80
2021/12/27 09:33:16;;;;;;;71.32;28.90;;;1.30;99.90;;;;;;4973671;28;20404;-76
2021/12/27 09:35:42;;;;;;;87.95;29.05;;;1.20;99.90;;;;;;4962824;28;268657;-77
2021/12/27 09:38:08;;;;;;;81.88;28.38;;;1.30;99.90;;;;;;4968917;28;20078;-77
2021/12/27 09:40:35;;;;;;;86.32;30.45;;;1.30;99.90;;;;;;4963315;28;267132;-76
2021/12/27 09:43:02;;;;;;;90.88;29.90;;;1.30;99.90;;;;;;4971060;28;20061;-77
2021/12/27 09:45:28;;;;;;;91.38;30.35;;;1.30;99.90;;;;;;4959248;28;254099;-77
2021/12/27 09:47:54;;;;;;;85.22;28.88;;;1.40;99.90;;;;;;4968422;28;20072;-77
2021/12/27 09:50:26;;;;;;;83.70;30.35;;;1.40;99.90;;;;;;4956555;28;172647;-76
2021/12/27 09:52:52;;;;;;;101.97;31.85;;;1.40;99.90;;;;;;4981540;28;20046;-76
2021/12/27 09:55:19;;;;;;;109.45;31.80;;;1.50;99.90;;;;;;4963368;28;50578;-77
2021/12/27 09:57:45;;;;;;;106.95;30.90;;;1.50;99.90;;;;;;4976409;28;20053;-76
2021/12/27 10:00:12;;;;;;;112.00;30.98;;;1.50;99.90;;;;;;4947701;28;275625;-77
2021/12/27 10:02:39;;;;;;;99.88;31.17;;;1.50;99.90;;;;;;4957912;28;20050;-75
2021/12/27 10:05:06;;;;;;;114.22;32.00;;;1.50;99.90;;;;;;4946668;28;141720;-77
2021/12/27 10:07:41;;;;;;;107.22;32.85;;;1.50;99.90;;;;;;4946906;28;20058;-75
2021/12/27 10:10:10;;;;;;;97.30;30.98;;;1.60;99.90;;;;;;4960301;28;20074;-76
2021/12/27 10:12:37;;;;;;;108.63;31.67;;;1.60;99.90;;;;;;4947464;28;20065;-76
2021/12/27 10:15:08;;;;;;;129.55;33.35;;;1.60;99.90;;;;;;4949873;28;137687;-76
2021/12/27 10:17:37;;;;;;;110.45;33.00;;;1.70;99.90;;;;;;4957812;28;20059;-75
2021/12/27 10:20:13;;;;;;;142.75;32.00;;;1.70;99.90;;;;;;4952068;28;80307;-76
2021/12/27 10:22:42;;;;;;;112.85;30.83;;;1.70;99.90;;;;;;4959352;28;20047;-75
2021/12/27 10:25:23;;;;;;;105.55;32.33;;;1.70;99.90;;;;;;4944300;28;237964;-76
2021/12/27 10:27:50;;;;;;;;;;;1.80;99.90;;;;;;4975238;28;20508;-75
2021/12/27 10:30:19;;;;;;;101.78;30.67;;;1.80;99.90;;;;;;4928987;28;127046;-76
2021/12/27 10:33:12;;;;;;;116.47;31.38;;;1.80;99.90;;;;;;4959558;28;20070;-76
2021/12/27 10:35:41;;;;;;;112.93;31.27;;;1.90;99.90;;;;;;4940440;28;50747;-73
2021/12/27 10:38:32;;;;;;;143.18;33.70;;;2.00;99.90;;;;;;4958600;28;20039;-73
2021/12/27 10:41:05;;;;;;;106.03;31.58;;;2.00;99.90;;;;;;4905492;28;173075;-74
2021/12/27 10:43:46;;;;;;;121.03;32.45;;;2.00;99.90;;;;;;4921990;29;20051;-73
2021/12/27 10:46:18;;;;;;;128.90;32.28;;;2.00;99.90;;;;;;4910013;28;168875;-72
2021/12/27 10:48:46;;;;;;;;;;;2.10;99.90;;;;;;4936242;28;20055;-73
2021/12/27 10:51:13;;;;;;;118.40;31.33;;;2.10;99.90;;;;;;4907852;29;203648;-73
2021/12/27 10:54:01;;;;;;;146.10;32.35;;;2.10;99.90;;;;;;4925679;29;20066;-73
2021/12/27 10:56:53;;;;;;;112.75;30.02;;;2.20;99.90;;;;;;4913972;28;63897;-74
2021/12/27 10:59:20;;;;;;;152.98;33.35;;;2.20;99.90;;;;;;4924648;28;113653;-72
2021/12/27 11:01:48;;;;;;;128.32;31.63;;;2.20;99.90;;;;;;4924194;29;20054;-73
2021/12/27 11:04:19;;;;;;;133.60;33.60;;;2.20;99.90;;;;;;4920351;28;20090;-71
2021/12/27 11:06:46;;;;;;;129.40;33.05;;;2.20;99.90;;;;;;4898224;28;167420;-75
2021/12/27 11:09:14;;;;;;;126.28;31.10;;;2.30;99.90;;;;;;4925854;29;20567;-73
2021/12/27 11:11:41;;;;;;;142.23;33.10;;;2.30;99.90;;;;;;4913101;28;233056;-73
2021/12/27 11:14:09;;;;;;;188.15;33.95;;;2.30;99.90;;;;;;4941224;28;20050;-75
2021/12/27 11:16:35;;;;;;;136.70;33.15;;;2.30;99.90;;;;;;4923852;28;272410;-75
2021/12/27 11:19:01;;;;;;;138.52;32.33;;;2.30;99.90;;;;;;4975312;28;20400;-74
2021/12/27 11:21:34;;;;;;;128.20;32.22;;;2.30;99.90;;;;;;4967045;28;145657;-75
2021/12/27 11:24:02;;;;;;;177.85;34.30;;;2.30;99.90;;;;;;4980561;28;20336;-76
2021/12/27 11:26:31;;;;;;;138.38;32.83;;;2.30;99.90;;;;;;4967138;28;112707;-75
2021/12/27 11:29:19;;;;;;;130.55;31.85;;;2.30;99.90;;;;;;4999363;28;20058;-74
2021/12/27 11:31:51;;;;;;;137.77;30.63;;;2.40;99.90;;;;;;4954870;28;20046;-74
2021/12/27 11:34:19;;;;;;;179.85;34.88;;;2.40;99.90;;;;;;4969777;28;269585;-74
2021/12/27 11:36:55;;;;;;;123.07;31.30;;;2.40;99.90;;;;;;4979638;28;20077;-71
2021/12/27 11:39:28;;;;;;;116.30;32.83;;;2.40;99.90;;;;;;4960033;28;259256;-72
2021/12/27 11:42:06;;;;;;;141.20;33.80;;;2.40;99.90;;;;;;4978233;28;20061;-73
2021/12/27 11:44:49;;;;;;;131.70;32.33;;;2.50;99.90;;;;;;4962505;28;266297;-73
2021/12/27 11:47:23;;;;;;;122.03;32.03;;;2.50;99.90;;;;;;4976099;28;20050;-75
2021/12/27 11:49:52;;;;;;;127.95;32.22;;;2.50;99.90;;;;;;4980179;28;231873;-74
2021/12/27 11:52:24;;;;;;;111.95;31.63;;;2.50;99.90;;;;;;4981673;28;20054;-74
2021/12/27 11:55:01;;;;;;;108.90;31.73;;;2.50;99.90;;;;;;4968638;28;75908;-73
2021/12/27 11:57:44;;;;;;;100.47;30.50;;;2.60;99.90;;;;;;4978771;28;20057;-73
2021/12/27 12:00:16;;;;;;;119.30;32.58;;;2.60;99.90;;;;;;4978106;28;204215;-72
2021/12/27 12:02:44;;;;;;;135.90;30.92;;;2.70;99.90;;;;;;4969483;28;20091;-73
2021/12/27 12:05:10;;;;;;;129.30;31.38;;;2.70;99.90;;;;;;4954891;28;169507;-73
2021/12/27 12:07:39;;;;;;;108.25;31.55;;;2.70;99.90;;;;;;4981829;28;20058;-73
2021/12/27 12:10:12;;;;;;;145.38;30.70;;;2.70;99.90;;;;;;4965822;28;239686;-73
2021/12/27 12:12:38;;;;;;;136.55;32.28;;;2.70;99.90;;;;;;4981454;28;20058;-73
2021/12/27 12:15:07;;;;;;;156.98;32.58;;;2.70;99.90;;;;;;4962837;28;220845;-72
2021/12/27 12:17:41;;;;;;;158.10;31.27;;;2.70;99.90;;;;;;4982019;28;20059;-72
2021/12/27 12:20:23;;;;;;;155.27;31.83;;;2.70;99.90;;;;;;4968743;28;264588;-73
2021/12/27 12:22:59;;;;;;;149.05;30.70;;;2.70;99.90;;;;;;4979841;28;20074;-72
2021/12/27 12:25:25;;;;;;;146.00;32.40;;;2.70;99.90;;;;;;4974803;28;263819;-72
2021/12/27 12:27:55;;;;;;;129.85;32.45;;;2.70;99.90;;;;;;4977717;28;20526;-72
2021/12/27 12:30:25;;;;;;;177.40;31.33;;;2.70;99.90;;;;;;4968324;28;278246;-72
2021/12/27 12:33:08;;;;;;;125.03;31.00;;;2.80;99.90;;;;;;5000742;28;20050;-73
2021/12/27 12:35:43;;;;;;;142.25;31.42;;;2.80;99.90;;;;;;4972276;28;266483;-72
2021/12/27 12:38:21;;;;;;;137.80;33.90;;;2.70;99.90;;;;;;4988096;28;20073;-72
2021/12/27 12:40:57;;;;;;;134.38;32.47;;;2.70;99.90;;;;;;4962781;28;166830;-71
2021/12/27 12:43:50;;;;;;;132.40;33.78;;;2.80;99.90;;;;;;4982254;28;20153;-71